Time;durP1;ratioP1;P1;durP2;ratioP2;P2;SDS_P1;SDS_P2;PMS_P1;PMS_P2;Temp;Humidity;BMP_temperature;BMP_pressure;BME280_temperature;BME280_humidity;BME280_pressure;Samples;Min_cycle;Max_cycle;Signal;HPM_P1;HPM_P2
2021/12/22 00:01:24;;;;;;;5.35;3.25;;;-2.00;89.50;;;;;;4991057;28;20080;-65
2021/12/22 00:03:50;;;;;;;5.05;2.00;;;-2.10;89.50;;;;;;4996436;28;20028;-65
2021/12/22 00:06:20;;;;;;;9.45;2.47;;;-2.10;89.30;;;;;;5000066;28;20095;-66
2021/12/22 00:08:46;;;;;;;4.40;2.60;;;-2.20;89.80;;;;;;4998533;28;20034;-65
2021/12/22 00:11:12;;;;;;;8.10;3.90;;;-2.20;90.30;;;;;;4999272;28;20046;-66
2021/12/22 00:13:37;;;;;;;5.35;2.85;;;-2.20;90.40;;;;;;5004166;28;20107;-66
2021/12/22 00:16:03;;;;;;;5.20;2.15;;;-2.20;90.40;;;;;;4998103;28;20061;-65
2021/12/22 00:18:29;;;;;;;4.25;2.42;;;-2.20;89.90;;;;;;5002490;28;22582;-66
2021/12/22 00:20:55;;;;;;;5.32;2.75;;;-2.20;89.80;;;;;;5000916;28;20693;-66
2021/12/22 00:23:20;;;;;;;4.47;2.60;;;-2.20;90.40;;;;;;5001246;28;20662;-65
2021/12/22 00:25:46;;;;;;;5.03;2.58;;;-2.20;90.60;;;;;;5003927;28;20034;-66
2021/12/22 00:28:12;;;;;;;9.07;4.05;;;-2.20;90.50;;;;;;5001264;28;20044;-67
2021/12/22 00:30:38;;;;;;;9.32;4.50;;;-2.10;90.40;;;;;;5000866;28;20030;-67
2021/12/22 00:33:06;;;;;;;5.85;3.53;;;-2.20;90.50;;;;;;5004612;28;20388;-66
2021/12/22 00:35:43;;;;;;;10.23;6.10;;;-2.10;90.50;;;;;;5004878;28;20044;-68
2021/12/22 00:38:18;;;;;;;13.55;6.82;;;-2.10;90.40;;;;;;5001584;28;20040;-67
2021/12/22 00:40:44;;;;;;;12.10;6.10;;;-2.10;90.50;;;;;;5004564;28;20153;-67
2021/12/22 00:43:11;;;;;;;9.60;5.40;;;-2.10;90.40;;;;;;5003212;28;20383;-67
2021/12/22 00:45:37;;;;;;;15.52;8.25;;;-2.10;91.00;;;;;;5000573;28;20022;-67
2021/12/22 00:48:05;;;;;;;13.93;7.97;;;-2.10;91.10;;;;;;5032250;28;20964;-68
2021/12/22 00:50:31;;;;;;;16.05;9.15;;;-2.10;91.20;;;;;;5000794;28;20756;-67
2021/12/22 00:52:57;;;;;;;16.63;8.63;;;-2.00;91.00;;;;;;5006638;28;20037;-67
2021/12/22 00:55:22;;;;;;;18.05;8.95;;;-2.00;91.60;;;;;;5000263;28;20088;-67
2021/12/22 00:57:49;;;;;;;15.80;9.63;;;-2.00;91.60;;;;;;5003002;28;20065;-66
2021/12/22 01:00:17;;;;;;;17.65;9.93;;;-2.00;91.60;;;;;;4997297;28;20034;-66
2021/12/22 01:02:44;;;;;;;20.08;10.95;;;-2.00;91.90;;;;;;5003090;28;20041;-66
2021/12/22 01:05:14;;;;;;;17.95;10.90;;;-1.90;91.90;;;;;;4999654;28;20033;-64
2021/12/22 01:07:41;;;;;;;19.95;11.88;;;-1.80;91.70;;;;;;4999417;28;20571;-66
2021/12/22 01:10:07;;;;;;;21.50;11.32;;;-1.80;91.70;;;;;;5004427;28;20030;-67
2021/12/22 01:12:33;;;;;;;23.42;13.50;;;-1.70;91.80;;;;;;5000871;28;20087;-66
2021/12/22 01:14:59;;;;;;;24.48;13.65;;;-1.60;91.80;;;;;;4997533;28;20527;-67
2021/12/22 01:17:25;;;;;;;21.60;13.00;;;-1.60;91.60;;;;;;5001844;28;20052;-66
2021/12/22 01:20:03;;;;;;;21.58;12.23;;;-1.60;91.70;;;;;;4999861;28;20046;-67
2021/12/22 01:22:47;;;;;;;15.30;9.30;;;-1.60;91.80;;;;;;5000611;28;20030;-66
2021/12/22 01:25:15;;;;;;;14.52;8.85;;;-1.60;92.00;;;;;;5002769;28;20554;-67
2021/12/22 01:27:42;;;;;;;17.13;8.23;;;-1.60;92.00;;;;;;5005606;28;20066;-66
2021/12/22 01:30:13;;;;;;;17.08;8.50;;;-1.50;92.30;;;;;;4999005;28;20034;-66
2021/12/22 01:32:39;;;;;;;15.27;8.27;;;-1.50;92.00;;;;;;4997966;28;20777;-66
2021/12/22 01:35:08;;;;;;;13.07;7.15;;;-1.50;91.90;;;;;;4997291;28;20417;-66
2021/12/22 01:37:33;;;;;;;11.10;6.70;;;-1.60;91.80;;;;;;4999467;28;20034;-67
2021/12/22 01:40:01;;;;;;;8.18;5.40;;;-1.60;91.90;;;;;;4999298;28;20027;-67
2021/12/22 01:42:27;;;;;;;10.45;6.53;;;-1.60;92.20;;;;;;5005847;28;20057;-67
2021/12/22 01:50:12;;;;;;;11.45;5.75;;;-1.50;92.10;;;;;;5000054;28;20036;-66
2021/12/22 01:52:38;;;;;;;10.18;6.15;;;-1.40;92.20;;;;;;4997573;28;20030;-66
2021/12/22 01:55:14;;;;;;;9.25;5.32;;;-1.40;92.30;;;;;;4998619;28;20034;-66
2021/12/22 01:57:45;;;;;;;11.35;7.20;;;-1.40;92.10;;;;;;5001273;28;20519;-66
2021/12/22 02:00:12;;;;;;;12.60;7.53;;;-1.30;91.90;;;;;;4998766;28;20120;-66
2021/12/22 02:02:38;;;;;;;12.38;7.75;;;-1.20;91.80;;;;;;5002716;28;20033;-66
2021/12/22 02:05:04;;;;;;;13.02;7.35;;;-1.20;91.90;;;;;;4997608;28;20041;-67
2021/12/22 02:07:29;;;;;;;10.50;6.28;;;-1.10;92.20;;;;;;5001220;28;20034;-67
2021/12/22 02:10:09;;;;;;;10.00;6.75;;;-1.20;92.20;;;;;;4998310;28;20030;-67
2021/12/22 02:12:40;;;;;;;11.55;6.85;;;-1.20;92.50;;;;;;4997698;28;20074;-65
2021/12/22 02:15:06;;;;;;;15.27;9.10;;;-1.10;92.50;;;;;;5000000;28;20029;-67
2021/12/22 02:17:32;;;;;;;19.95;10.35;;;-1.00;92.40;;;;;;4999709;28;20300;-66
2021/12/22 02:19:57;;;;;;;14.50;8.30;;;-0.90;92.30;;;;;;4995425;28;21282;-66
2021/12/22 02:22:28;;;;;;;12.98;7.72;;;-0.80;92.30;;;;;;4991965;28;20035;-66
2021/12/22 02:25:00;;;;;;;11.23;7.07;;;-0.80;92.30;;;;;;4991647;28;20077;-66
2021/12/22 02:27:41;;;;;;;12.13;7.60;;;-0.70;92.50;;;;;;4997182;28;20377;-66
2021/12/22 02:30:15;;;;;;;14.95;7.47;;;-0.70;92.70;;;;;;4993000;28;20038;-66
2021/12/22 02:35:27;;;;;;;12.82;7.50;;;-0.60;93.10;;;;;;4991184;28;20084;-67
2021/12/22 02:37:53;;;;;;;15.05;8.38;;;-0.60;92.90;;;;;;4995755;28;20030;-66
2021/12/22 02:40:26;;;;;;;13.48;8.38;;;-0.60;93.00;;;;;;4992745;28;20691;-67
2021/12/22 02:42:54;;;;;;;13.65;8.75;;;-0.60;93.20;;;;;;4997478;28;20046;-67
2021/12/22 02:45:21;;;;;;;16.42;9.43;;;-0.70;93.30;;;;;;4998217;28;20488;-67
2021/12/22 02:47:47;;;;;;;14.27;8.45;;;-0.70;93.30;;;;;;5001586;28;20096;-67
2021/12/22 02:50:15;;;;;;;10.45;6.80;;;-0.80;93.50;;;;;;4998229;28;20062;-67
2021/12/22 02:55:13;;;;;;;7.63;5.00;;;-0.90;93.90;;;;;;4994356;28;20056;-66
2021/12/22 02:57:47;;;;;;;8.85;5.80;;;-0.90;94.10;;;;;;4991008;28;20413;-66
2021/12/22 03:05:21;;;;;;;8.70;5.63;;;-0.70;93.80;;;;;;4988688;28;20137;-66
2021/12/22 03:07:48;;;;;;;9.15;4.97;;;-0.60;93.90;;;;;;4991665;28;20045;-66
2021/12/22 03:10:20;;;;;;;7.25;5.35;;;-0.70;93.90;;;;;;4991822;28;20030;-65
2021/12/22 03:12:51;;;;;;;8.23;5.57;;;-0.70;94.00;;;;;;4994774;28;20034;-66
2021/12/22 03:15:17;;;;;;;7.22;5.22;;;-0.60;94.00;;;;;;4996009;28;20030;-65
2021/12/22 03:17:43;;;;;;;7.80;5.03;;;-0.60;94.00;;;;;;4995929;28;20076;-66
2021/12/22 03:20:12;;;;;;;10.07;5.90;;;-0.70;94.10;;;;;;4994432;28;20053;-66
2021/12/22 03:22:38;;;;;;;9.93;5.45;;;-0.70;94.40;;;;;;4996935;28;20026;-66
2021/12/22 03:25:13;;;;;;;8.63;5.63;;;-0.80;94.70;;;;;;4992754;28;20515;-65
2021/12/22 03:27:39;;;;;;;11.60;6.35;;;-0.90;94.80;;;;;;4996277;28;20030;-66
2021/12/22 03:30:06;;;;;;;13.05;7.20;;;-1.00;95.00;;;;;;4993895;28;20049;-65
2021/12/22 03:32:32;;;;;;;13.40;6.90;;;-1.00;95.20;;;;;;4994683;28;20053;-66
2021/12/22 03:34:57;;;;;;;10.40;6.53;;;-1.00;95.30;;;;;;4995249;28;20472;-66
2021/12/22 03:37:23;;;;;;;11.05;6.57;;;-1.00;95.40;;;;;;4992024;28;20117;-66
2021/12/22 03:39:49;;;;;;;9.63;5.00;;;-0.80;95.30;;;;;;4992619;28;20062;-66
2021/12/22 03:42:14;;;;;;;7.65;4.70;;;-0.70;95.20;;;;;;4996149;28;20077;-65
2021/12/22 03:44:41;;;;;;;8.20;4.43;;;-0.60;95.20;;;;;;4993026;28;20415;-65
2021/12/22 03:47:07;;;;;;;7.40;5.20;;;-0.60;95.30;;;;;;4994682;28;20054;-66
2021/12/22 03:49:34;;;;;;;8.40;5.20;;;-0.50;95.20;;;;;;4997964;28;20050;-66
2021/12/22 03:52:00;;;;;;;7.25;4.57;;;-0.50;95.20;;;;;;4995913;28;20080;-66
2021/12/22 03:54:26;;;;;;;8.98;5.57;;;-0.50;95.30;;;;;;4990764;28;20062;-65
2021/12/22 03:56:51;;;;;;;10.45;5.43;;;-0.60;95.50;;;;;;4992995;28;20548;-66
2021/12/22 03:59:18;;;;;;;7.88;5.47;;;-0.70;95.70;;;;;;4996420;28;20468;-66
2021/12/22 04:01:44;;;;;;;7.35;5.18;;;-0.70;96.00;;;;;;4998514;28;20037;-66
2021/12/22 04:04:14;;;;;;;8.50;6.13;;;-0.60;96.00;;;;;;4992613;28;20054;-66
2021/12/22 04:06:42;;;;;;;10.05;6.13;;;-0.50;96.00;;;;;;4995667;28;20087;-66
2021/12/22 04:09:08;;;;;;;8.35;5.60;;;-0.40;95.90;;;;;;4999079;28;20026;-66
2021/12/22 04:11:33;;;;;;;8.55;5.50;;;-0.40;95.70;;;;;;4997540;28;20578;-66
2021/12/22 04:13:59;;;;;;;7.72;5.65;;;-0.40;95.80;;;;;;4997780;28;20027;-67
2021/12/22 04:16:25;;;;;;;10.70;5.32;;;-0.30;95.80;;;;;;4996291;28;20124;-65
2021/12/22 04:18:51;;;;;;;8.85;5.82;;;-0.20;95.80;;;;;;4999264;28;20041;-66
2021/12/22 04:21:16;;;;;;;9.88;6.15;;;-0.10;95.60;;;;;;4997830;28;20048;-66
2021/12/22 04:23:42;;;;;;;9.80;6.35;;;0.00;95.50;;;;;;4995169;28;20034;-66
2021/12/22 04:26:08;;;;;;;8.77;5.80;;;0.10;95.40;;;;;;4996902;28;20027;-66
2021/12/22 04:28:33;;;;;;;7.78;5.43;;;0.10;95.40;;;;;;5002312;28;20125;-66
2021/12/22 04:30:59;;;;;;;10.00;5.22;;;0.10;95.30;;;;;;5001249;28;20109;-66
2021/12/22 04:33:25;;;;;;;6.40;4.63;;;0.20;95.10;;;;;;4997021;28;20424;-66
2021/12/22 04:35:51;;;;;;;7.68;5.47;;;0.20;94.90;;;;;;4993512;28;20030;-67
2021/12/22 04:38:18;;;;;;;8.10;4.97;;;0.30;94.80;;;;;;4993888;28;20030;-66
2021/12/22 04:40:44;;;;;;;9.25;5.35;;;0.20;94.80;;;;;;4997917;28;20128;-67
2021/12/22 04:43:10;;;;;;;9.30;6.35;;;0.20;94.80;;;;;;4996846;28;20030;-66
2021/12/22 04:45:36;;;;;;;12.65;7.18;;;0.10;95.00;;;;;;4995927;28;20037;-66
2021/12/22 04:48:02;;;;;;;24.27;11.45;;;0.10;95.20;;;;;;4997717;28;20064;-66
2021/12/22 04:50:28;;;;;;;19.58;11.48;;;0.00;95.30;;;;;;4997642;28;20058;-66
2021/12/22 04:53:03;;;;;;;20.20;11.48;;;0.00;95.40;;;;;;4998827;28;20030;-66
2021/12/22 04:55:29;;;;;;;14.05;9.70;;;-0.10;95.50;;;;;;4999670;28;20042;-66
2021/12/22 04:57:56;;;;;;;15.60;9.18;;;-0.20;95.80;;;;;;4996429;28;20107;-67
2021/12/22 05:00:24;;;;;;;10.68;7.30;;;-0.20;95.90;;;;;;5002923;28;20038;-66
2021/12/22 05:02:50;;;;;;;10.98;7.00;;;-0.30;96.00;;;;;;5001830;28;20058;-67
2021/12/22 05:05:16;;;;;;;18.77;9.45;;;-0.30;96.10;;;;;;5001479;28;20031;-66
2021/12/22 05:07:43;;;;;;;18.05;9.02;;;-0.30;96.30;;;;;;5002120;28;20041;-66
2021/12/22 05:10:10;;;;;;;17.73;8.63;;;-0.40;96.20;;;;;;4998681;28;20026;-66
2021/12/22 05:12:36;;;;;;;21.15;10.23;;;-0.40;96.30;;;;;;5003166;28;20040;-67
2021/12/22 05:15:03;;;;;;;10.60;6.88;;;-0.50;96.50;;;;;;5001537;28;20041;-67
2021/12/22 05:18:00;;;;;;;13.70;7.10;;;-0.50;96.40;;;;;;4995777;28;20038;-67
2021/12/22 05:20:24;;;;;;;10.85;5.75;;;-0.50;96.40;;;;;;4992422;28;20049;-66
2021/12/22 05:22:51;;;;;;;7.43;5.18;;;-0.60;96.60;;;;;;4994087;28;20022;-64
2021/12/22 05:25:16;;;;;;;8.65;5.53;;;-0.60;96.70;;;;;;5004751;28;21156;-65
2021/12/22 05:27:42;;;;;;;9.13;5.57;;;-0.60;97.00;;;;;;5000665;28;20046;-65
2021/12/22 05:30:10;;;;;;;7.45;5.28;;;-0.60;97.00;;;;;;5000151;28;20073;-65
2021/12/22 05:32:36;;;;;;;8.23;5.22;;;-0.60;96.90;;;;;;5002786;28;20038;-65
2021/12/22 05:35:05;;;;;;;7.03;5.15;;;-0.60;96.80;;;;;;4999161;28;20022;-65
2021/12/22 05:37:31;;;;;;;7.47;5.15;;;-0.60;96.70;;;;;;4998751;28;20750;-65
2021/12/22 05:39:57;;;;;;;7.13;4.63;;;-0.50;96.80;;;;;;5001357;28;20034;-65
2021/12/22 05:42:27;;;;;;;7.15;4.53;;;-0.50;96.60;;;;;;5007064;28;20034;-65
2021/12/22 05:44:52;;;;;;;6.03;4.53;;;-0.60;96.60;;;;;;5029550;28;20429;-65
2021/12/22 05:47:18;;;;;;;7.80;4.60;;;-0.70;96.80;;;;;;5000885;28;20153;-65
2021/12/22 05:49:44;;;;;;;9.57;4.97;;;-0.70;97.00;;;;;;5001592;28;20048;-66
2021/12/22 05:52:11;;;;;;;7.25;5.15;;;-0.80;97.20;;;;;;4998321;28;20054;-66
2021/12/22 05:54:37;;;;;;;13.85;5.55;;;-0.70;97.10;;;;;;5003375;28;20038;-66
2021/12/22 05:57:03;;;;;;;8.25;4.85;;;-0.70;97.00;;;;;;5000604;28;20042;-66
2021/12/22 05:59:28;;;;;;;9.90;5.68;;;-0.70;97.00;;;;;;4996662;28;20043;-66
2021/12/22 06:01:54;;;;;;;8.40;5.43;;;-0.70;97.00;;;;;;4992712;28;20037;-66
2021/12/22 06:04:20;;;;;;;8.55;5.13;;;-0.70;97.00;;;;;;4993332;28;20034;-66
2021/12/22 06:06:45;;;;;;;7.63;5.57;;;-0.70;97.10;;;;;;4990331;28;20528;-66
2021/12/22 06:09:11;;;;;;;9.35;5.40;;;-0.90;97.20;;;;;;4991714;28;20023;-65
2021/12/22 06:11:37;;;;;;;7.18;4.70;;;-1.00;97.50;;;;;;4994521;28;20423;-65
2021/12/22 06:14:02;;;;;;;8.77;5.25;;;-1.10;97.70;;;;;;5001642;28;20032;-66
2021/12/22 06:16:30;;;;;;;8.90;5.50;;;-1.20;97.80;;;;;;4997328;28;20030;-66
2021/12/22 06:18:58;;;;;;;8.93;5.93;;;-1.00;98.00;;;;;;5000830;28;20049;-66
2021/12/22 06:21:24;;;;;;;9.02;6.05;;;-0.90;97.60;;;;;;5000754;28;20034;-66
2021/12/22 06:23:50;;;;;;;7.40;4.95;;;-0.90;97.40;;;;;;5003808;28;20030;-66
2021/12/22 06:26:17;;;;;;;9.55;5.82;;;-0.90;97.40;;;;;;4999822;28;20048;-66
2021/12/22 06:28:43;;;;;;;11.85;9.32;;;-0.90;97.40;;;;;;4995982;28;20022;-66
2021/12/22 06:31:09;;;;;;;9.90;7.70;;;-1.00;97.70;;;;;;4997706;28;20033;-66
2021/12/22 06:33:35;;;;;;;6.95;5.07;;;-1.10;97.80;;;;;;5000161;28;20116;-66
2021/12/22 06:36:01;;;;;;;6.95;5.10;;;-1.10;97.90;;;;;;4996497;28;20034;-66
2021/12/22 06:38:27;;;;;;;7.43;5.18;;;-1.00;97.80;;;;;;4998158;28;20038;-66
2021/12/22 06:40:52;;;;;;;8.35;4.82;;;-1.00;97.70;;;;;;5002103;28;20440;-66
2021/12/22 06:43:18;;;;;;;7.80;5.28;;;-0.90;97.70;;;;;;4998521;28;20397;-66
2021/12/22 06:45:44;;;;;;;9.43;5.25;;;-0.70;97.60;;;;;;4998045;28;20029;-66
2021/12/22 06:48:10;;;;;;;11.15;6.57;;;-0.70;97.30;;;;;;5001140;28;20054;-66
2021/12/22 06:50:38;;;;;;;7.85;5.47;;;-0.70;97.10;;;;;;4995881;28;20034;-66
2021/12/22 06:53:04;;;;;;;7.10;5.57;;;-0.60;97.20;;;;;;4998031;28;20543;-64
2021/12/22 06:55:30;;;;;;;10.90;7.90;;;-0.50;97.00;;;;;;4997734;28;20026;-65
2021/12/22 06:57:56;;;;;;;7.43;5.50;;;-0.40;96.60;;;;;;4998899;28;20133;-65
2021/12/22 07:00:22;;;;;;;6.95;5.00;;;-0.40;96.60;;;;;;4995509;28;20038;-65
2021/12/22 07:02:48;;;;;;;6.18;5.20;;;-0.30;96.40;;;;;;4997950;28;20026;-66
2021/12/22 07:05:14;;;;;;;9.75;7.82;;;-0.20;96.20;;;;;;4995929;28;20033;-66
2021/12/22 07:07:40;;;;;;;15.88;13.32;;;-0.30;96.20;;;;;;4997260;28;20026;-66
2021/12/22 07:10:08;;;;;;;23.45;21.23;;;-0.50;96.40;;;;;;5000712;28;20053;-66
2021/12/22 07:12:42;;;;;;;11.55;10.35;;;-0.60;96.50;;;;;;4996969;28;20042;-66
2021/12/22 07:15:10;;;;;;;13.77;10.75;;;-0.80;96.60;;;;;;4995286;28;20030;-65
2021/12/22 07:17:37;;;;;;;12.63;9.63;;;-0.90;97.00;;;;;;4996229;28;20045;-64
2021/12/22 07:20:05;;;;;;;14.77;11.02;;;-1.00;97.20;;;;;;4998051;28;20042;-65
2021/12/22 07:22:32;;;;;;;13.82;8.95;;;-0.90;97.50;;;;;;4997705;28;20484;-65
2021/12/22 07:24:57;;;;;;;10.82;7.20;;;-0.90;97.10;;;;;;4997517;28;20022;-67
2021/12/22 07:27:23;;;;;;;8.90;6.35;;;-0.90;97.10;;;;;;4992714;28;20484;-66
2021/12/22 07:29:49;;;;;;;10.80;6.80;;;-0.90;97.10;;;;;;4991737;28;20448;-66
2021/12/22 07:32:14;;;;;;;9.90;6.53;;;-0.90;97.30;;;;;;4992558;28;20057;-66
2021/12/22 07:34:51;;;;;;;16.73;7.95;;;-0.60;97.20;;;;;;4991753;28;20057;-66
2021/12/22 07:37:41;;;;;;;12.68;7.75;;;-0.40;96.90;;;;;;4992251;28;20584;-66
2021/12/22 07:40:14;;;;;;;12.38;7.72;;;-0.20;96.40;;;;;;4993661;28;20038;-65
2021/12/22 07:42:40;;;;;;;14.48;8.52;;;-0.10;96.00;;;;;;4995892;28;20026;-66
2021/12/22 07:45:07;;;;;;;11.48;7.90;;;0.00;95.60;;;;;;4993077;28;20660;-67
2021/12/22 07:47:33;;;;;;;10.68;7.10;;;-0.10;95.50;;;;;;4994345;28;20561;-67
2021/12/22 07:49:59;;;;;;;12.77;7.22;;;-0.20;95.50;;;;;;4991793;28;20029;-67
2021/12/22 07:52:27;;;;;;;13.27;7.15;;;-0.20;95.60;;;;;;4994003;28;20038;-66
2021/12/22 07:54:53;;;;;;;15.23;7.10;;;-0.20;95.70;;;;;;4996712;28;20030;-68
2021/12/22 07:57:19;;;;;;;19.38;12.95;;;-0.30;95.80;;;;;;4992110;28;20041;-66
2021/12/22 07:59:45;;;;;;;23.60;13.88;;;-0.40;95.90;;;;;;4994758;28;20037;-66
2021/12/22 08:02:12;;;;;;;26.13;16.45;;;-0.50;96.10;;;;;;4994087;28;20041;-65
2021/12/22 08:04:38;;;;;;;31.17;18.08;;;-0.50;96.40;;;;;;4995179;28;20030;-63
2021/12/22 08:07:04;;;;;;;18.63;12.98;;;-0.50;96.60;;;;;;4997082;28;20044;-65
2021/12/22 08:09:30;;;;;;;12.98;8.50;;;-0.40;96.80;;;;;;4995908;28;20038;-65
2021/12/22 08:12:04;;;;;;;18.27;10.32;;;-0.20;96.30;;;;;;4992738;28;20073;-65
2021/12/22 08:14:39;;;;;;;15.55;8.23;;;-0.10;96.00;;;;;;4994753;28;20496;-65
2021/12/22 08:17:08;;;;;;;16.15;9.45;;;-0.40;96.30;;;;;;4994025;28;20034;-65
2021/12/22 08:19:34;;;;;;;17.33;9.77;;;-0.50;96.80;;;;;;4993479;28;20145;-64
2021/12/22 08:22:01;;;;;;;14.52;8.43;;;-0.60;97.00;;;;;;4994159;28;20394;-64
2021/12/22 08:24:27;;;;;;;11.88;7.65;;;-0.80;97.20;;;;;;4995403;28;20030;-66
2021/12/22 08:26:53;;;;;;;13.10;7.70;;;-0.90;97.50;;;;;;4997451;28;20029;-65
2021/12/22 08:29:19;;;;;;;13.52;7.90;;;-0.90;97.60;;;;;;4990599;28;20921;-65
2021/12/22 08:31:45;;;;;;;14.85;8.73;;;-0.90;97.60;;;;;;4993190;28;20056;-65
2021/12/22 08:34:13;;;;;;;13.38;8.65;;;-0.90;97.80;;;;;;4995195;28;20034;-65
2021/12/22 08:39:24;;;;;;;12.52;7.13;;;-0.70;97.30;;;;;;4995482;28;20041;-65
2021/12/22 08:41:50;;;;;;;12.05;8.10;;;-0.50;97.20;;;;;;4997997;28;20031;-65
2021/12/22 08:44:18;;;;;;;10.63;7.80;;;-0.30;96.80;;;;;;4998039;28;20034;-65
2021/12/22 08:46:48;;;;;;;10.82;7.88;;;0.00;96.40;;;;;;4997995;28;20133;-65
2021/12/22 08:49:14;;;;;;;9.52;6.57;;;0.10;95.90;;;;;;4992873;28;20040;-65
2021/12/22 08:51:40;;;;;;;13.85;9.88;;;0.20;96.10;;;;;;4989277;28;20069;-65
2021/12/22 08:54:06;;;;;;;24.10;15.27;;;0.10;95.60;;;;;;4990504;28;20219;-64
2021/12/22 08:56:33;;;;;;;16.77;10.18;;;0.00;95.60;;;;;;4995176;28;20034;-65
2021/12/22 08:58:59;;;;;;;10.40;6.97;;;-0.20;95.80;;;;;;4989666;28;20046;-65
2021/12/22 09:01:26;;;;;;;13.18;8.27;;;-0.40;96.30;;;;;;4993060;28;20653;-65
2021/12/22 09:03:53;;;;;;;10.63;7.45;;;-0.50;96.80;;;;;;4997819;28;20034;-65
2021/12/22 09:06:18;;;;;;;11.55;7.25;;;-0.50;96.80;;;;;;4992368;28;20030;-65
2021/12/22 09:08:44;;;;;;;9.60;7.05;;;-0.50;96.80;;;;;;4990400;28;20104;-65
2021/12/22 09:11:11;;;;;;;9.90;6.43;;;-0.30;96.50;;;;;;4997230;28;20050;-65
2021/12/22 09:13:38;;;;;;;11.50;7.05;;;-0.10;96.20;;;;;;4994470;28;20045;-65
2021/12/22 09:16:06;;;;;;;8.25;5.97;;;0.00;95.80;;;;;;4991594;28;20141;-66
2021/12/22 09:18:32;;;;;;;10.43;6.88;;;-0.10;95.60;;;;;;4995223;28;20026;-65
2021/12/22 09:20:57;;;;;;;13.88;8.13;;;-0.20;96.00;;;;;;4996912;28;20057;-64
2021/12/22 09:23:23;;;;;;;24.40;16.95;;;-0.10;96.30;;;;;;4992638;28;20040;-65
2021/12/22 09:25:49;;;;;;;60.72;32.47;;;0.00;96.00;;;;;;4991889;28;20034;-66
2021/12/22 09:28:17;;;;;;;23.33;14.13;;;0.20;95.60;;;;;;4992798;28;20034;-65
2021/12/22 09:30:44;;;;;;;84.25;48.90;;;0.40;95.20;;;;;;4998813;28;20093;-64
2021/12/22 09:33:14;;;;;;;56.92;33.58;;;0.60;95.10;;;;;;4996642;28;20030;-65
2021/12/22 09:35:42;;;;;;;29.90;18.27;;;0.80;94.70;;;;;;4996203;28;20036;-63
2021/12/22 09:38:08;;;;;;;18.25;12.77;;;0.90;94.20;;;;;;4999197;28;20118;-64
2021/12/22 09:40:34;;;;;;;30.80;19.48;;;1.10;93.80;;;;;;5000364;28;20047;-66
2021/12/22 09:43:00;;;;;;;31.92;20.85;;;1.20;93.70;;;;;;4998319;28;20157;-65
2021/12/22 09:45:26;;;;;;;32.05;19.83;;;1.30;93.40;;;;;;5000198;28;20050;-65
2021/12/22 09:50:46;;;;;;;21.95;12.35;;;1.50;93.00;;;;;;4998169;28;20034;-66
2021/12/22 09:53:14;;;;;;;17.05;13.05;;;1.30;92.90;;;;;;5004032;28;20030;-65
2021/12/22 09:55:41;;;;;;;15.05;11.50;;;1.30;93.10;;;;;;4995396;28;20374;-65
2021/12/22 09:58:09;;;;;;;17.25;11.40;;;1.40;92.90;;;;;;4998931;28;20033;-65
2021/12/22 10:00:36;;;;;;;18.55;13.90;;;1.40;92.80;;;;;;4990630;28;20045;-65
2021/12/22 10:03:07;;;;;;;22.65;17.05;;;1.30;92.80;;;;;;4996414;28;20040;-66
2021/12/22 10:05:34;;;;;;;16.42;11.82;;;1.30;93.10;;;;;;5001065;28;20531;-65
2021/12/22 10:08:20;;;;;;;15.43;10.60;;;1.10;93.30;;;;;;4991726;28;20471;-65
2021/12/22 10:10:59;;;;;;;16.30;11.00;;;1.10;93.60;;;;;;4988074;28;20109;-65
2021/12/22 10:13:27;;;;;;;13.20;11.77;;;1.10;93.80;;;;;;4989359;28;20042;-66
2021/12/22 10:15:53;;;;;;;12.57;9.23;;;1.10;94.00;;;;;;4992689;28;20045;-66
2021/12/22 10:18:24;;;;;;;14.70;9.02;;;1.10;93.90;;;;;;4998932;28;20165;-65
2021/12/22 10:20:53;;;;;;;13.30;10.68;;;0.90;94.30;;;;;;4996880;28;20104;-66
2021/12/22 10:23:29;;;;;;;14.90;10.07;;;1.00;94.50;;;;;;4994150;28;20030;-65
2021/12/22 10:25:59;;;;;;;23.63;14.70;;;1.20;94.10;;;;;;4996439;28;20038;-65
2021/12/22 10:28:26;;;;;;;27.33;17.20;;;1.00;94.20;;;;;;4992135;28;20026;-65
2021/12/22 10:30:56;;;;;;;18.30;12.07;;;0.90;94.60;;;;;;4984466;28;20493;-66
2021/12/22 10:33:27;;;;;;;13.02;8.82;;;1.00;94.40;;;;;;4991979;28;20022;-65
2021/12/22 10:35:59;;;;;;;21.92;12.98;;;1.10;93.90;;;;;;4990242;28;20033;-65
2021/12/22 10:38:26;;;;;;;;;;;1.20;93.70;;;;;;4991168;28;20590;-65
2021/12/22 10:41:08;;;;;;;31.40;20.33;;;1.10;93.80;;;;;;5001127;28;20351;-66
2021/12/22 10:43:40;;;;;;;17.13;10.73;;;1.10;94.00;;;;;;4992912;28;20403;-65
2021/12/22 10:46:05;;;;;;;17.67;12.65;;;1.30;93.60;;;;;;4991948;28;20037;-66
2021/12/22 10:51:26;;;;;;;13.40;8.82;;;1.30;93.30;;;;;;4994131;28;20145;-66
2021/12/22 10:53:53;;;;;;;;;;;1.40;93.40;;;;;;4996095;28;20036;-65
2021/12/22 10:56:36;;;;;;;17.45;11.73;;;1.20;93.50;;;;;;4992726;28;19956;-66
2021/12/22 10:59:17;;;;;;;24.25;15.43;;;1.00;94.10;;;;;;4995682;28;20065;-65
2021/12/22 11:01:57;;;;;;;27.02;17.58;;;0.90;94.40;;;;;;4993182;28;20510;-65
2021/12/22 11:04:32;;;;;;;12.57;9.10;;;0.80;94.60;;;;;;4987898;28;20400;-65
2021/12/22 11:07:16;;;;;;;11.57;8.32;;;0.60;95.00;;;;;;4994272;28;20526;-65
2021/12/22 11:09:41;;;;;;;13.35;9.10;;;0.50;95.10;;;;;;4990362;28;20595;-65
2021/12/22 11:12:08;;;;;;;11.20;8.13;;;0.60;95.40;;;;;;4997427;28;20109;-65
2021/12/22 11:14:47;;;;;;;9.57;7.03;;;0.80;94.90;;;;;;4995671;28;20051;-65
2021/12/22 11:17:15;;;;;;;9.63;7.13;;;0.70;94.50;;;;;;4998384;28;20104;-66
2021/12/22 11:19:58;;;;;;;11.13;6.78;;;0.60;94.60;;;;;;4995538;28;20669;-65
2021/12/22 11:22:52;;;;;;;10.65;6.95;;;0.60;94.90;;;;;;4996839;28;20109;-65
2021/12/22 11:25:19;;;;;;;11.68;6.88;;;0.70;94.50;;;;;;4992458;28;20032;-66
2021/12/22 11:27:46;;;;;;;10.50;6.88;;;0.90;94.40;;;;;;4992551;28;20034;-66
2021/12/22 11:30:12;;;;;;;9.13;6.63;;;1.10;94.30;;;;;;4992785;28;20026;-65
2021/12/22 11:32:39;;;;;;;9.75;6.43;;;1.20;94.10;;;;;;4995488;28;20041;-65
2021/12/22 11:35:08;;;;;;;9.82;6.63;;;1.40;93.60;;;;;;4996940;28;20034;-65
2021/12/22 11:37:34;;;;;;;10.73;8.00;;;1.60;93.60;;;;;;4994973;28;20026;-65
2021/12/22 11:40:02;;;;;;;10.68;6.82;;;1.70;93.30;;;;;;4991713;28;20100;-65
2021/12/22 11:42:32;;;;;;;10.32;6.93;;;1.50;92.70;;;;;;4998307;28;20028;-65
2021/12/22 11:45:13;;;;;;;9.80;6.88;;;1.40;93.20;;;;;;4991356;28;20030;-66
2021/12/22 11:47:42;;;;;;;10.50;7.33;;;1.40;93.30;;;;;;4995031;28;20758;-66
2021/12/22 11:50:17;;;;;;;11.93;8.85;;;1.40;93.40;;;;;;4995149;28;20276;-65
2021/12/22 11:53:02;;;;;;;10.70;7.20;;;1.50;93.40;;;;;;4997234;28;20037;-66
2021/12/22 11:55:52;;;;;;;8.52;6.30;;;1.70;92.80;;;;;;4995538;28;20061;-66
2021/12/22 11:58:20;;;;;;;9.93;7.07;;;1.90;92.30;;;;;;4992549;28;20022;-66
2021/12/22 12:00:55;;;;;;;9.07;6.93;;;2.00;91.80;;;;;;4995302;28;20504;-65
2021/12/22 12:03:34;;;;;;;14.13;8.05;;;1.90;92.00;;;;;;4997760;28;20030;-66
2021/12/22 12:06:15;;;;;;;12.20;8.27;;;2.10;92.00;;;;;;5003814;28;20053;-65
2021/12/22 12:08:52;;;;;;;12.88;7.80;;;2.30;91.80;;;;;;5002907;28;20057;-66
2021/12/22 12:11:49;;;;;;;12.32;8.63;;;2.40;91.30;;;;;;5006046;28;20028;-66
2021/12/22 12:23:29;;;;;;;10.20;6.40;;;2.60;91.30;;;;;;4997201;28;20562;-65
2021/12/22 12:25:59;;;;;;;9.65;7.03;;;2.70;91.20;;;;;;4996033;28;20042;-65
2021/12/22 12:28:25;;;;;;;9.75;6.85;;;2.70;91.50;;;;;;5001976;28;20042;-66
2021/12/22 12:30:59;;;;;;;11.00;7.35;;;2.70;91.50;;;;;;4998490;28;20500;-66
2021/12/22 12:33:29;;;;;;;9.35;6.50;;;2.70;91.40;;;;;;5004561;28;20648;-66
2021/12/22 12:36:06;;;;;;;10.07;6.55;;;2.70;91.60;;;;;;4996883;28;20652;-65
2021/12/22 12:38:55;;;;;;;10.65;7.18;;;2.60;91.50;;;;;;4999327;28;20072;-65
2021/12/22 12:41:28;;;;;;;10.70;6.93;;;2.60;91.70;;;;;;5000744;28;20057;-66
2021/12/22 12:44:08;;;;;;;8.85;6.50;;;2.60;91.80;;;;;;4998460;28;20041;-66
2021/12/22 12:46:38;;;;;;;9.30;6.70;;;2.60;91.40;;;;;;4996445;28;20119;-66
2021/12/22 12:49:07;;;;;;;10.35;7.65;;;2.60;91.70;;;;;;5001475;28;20030;-66
2021/12/22 12:51:33;;;;;;;10.27;7.68;;;2.60;91.80;;;;;;5000323;28;20200;-64
2021/12/22 12:54:07;;;;;;;9.70;7.18;;;2.70;91.50;;;;;;4998244;28;20034;-66
2021/12/22 12:56:38;;;;;;;12.93;7.25;;;2.60;91.50;;;;;;5004104;28;20129;-65
2021/12/22 12:59:07;;;;;;;689.00;339.60;;;2.60;91.20;;;;;;5001314;28;20034;-66
2021/12/22 13:01:51;;;;;;;48.05;27.33;;;2.50;91.10;;;;;;5001036;28;20491;-66
2021/12/22 13:04:27;;;;;;;12.00;9.05;;;2.50;91.60;;;;;;5003389;28;20030;-67
2021/12/22 13:06:53;;;;;;;11.65;8.35;;;2.40;91.60;;;;;;5002894;28;20044;-67
2021/12/22 13:09:43;;;;;;;11.57;8.30;;;2.40;91.60;;;;;;5004363;28;20044;-67
2021/12/22 13:17:41;;;;;;;11.45;8.93;;;2.50;91.10;;;;;;5002476;28;20053;-66
2021/12/22 13:20:12;;;;;;;11.27;7.95;;;2.50;91.00;;;;;;5001808;28;20069;-65
2021/12/22 13:22:39;;;;;;;16.40;12.55;;;2.40;90.90;;;;;;5000344;28;20567;-65
2021/12/22 13:25:36;;;;;;;12.35;8.52;;;2.50;91.00;;;;;;4999913;28;20057;-65
2021/12/22 13:28:06;;;;;;;11.93;8.23;;;2.50;91.00;;;;;;5004721;28;20046;-66
2021/12/22 13:30:35;;;;;;;11.95;8.25;;;2.60;90.80;;;;;;5002280;28;20030;-65